Time;durP1;ratioP1;P1;durP2;ratioP2;P2;SDS_P1;SDS_P2;PMS_P1;PMS_P2;Temp;Humidity;BMP_temperature;BMP_pressure;BME280_temperature;BME280_humidity;BME280_pressure;Samples;Min_cycle;Max_cycle;Signal;HPM_P1;HPM_P2
2022/03/23 00:00:06;;;;;;;30.70;22.63;;;;;;;;;;2067270;28;20606;-55
2022/03/23 00:01:12;;;;;;;33.17;22.63;;;;;;;;;;2068763;28;20243;-51
2022/03/23 00:02:12;;;;;;;33.90;22.83;;;;;;;;;;2066451;28;20181;-56
2022/03/23 00:03:13;;;;;;;33.40;21.77;;;;;;;;;;2067382;28;20196;-51
2022/03/23 00:04:13;;;;;;;29.03;22.37;;;;;;;;;;2066593;28;20228;-54
2022/03/23 00:05:18;;;;;;;29.17;22.77;;;;;;;;;;2065323;28;20646;-52
2022/03/23 00:06:18;;;;;;;30.47;22.97;;;;;;;;;;2064845;28;20173;-53
2022/03/23 00:07:20;;;;;;;30.73;21.97;;;;;;;;;;2064084;28;20635;-54
2022/03/23 00:08:21;;;;;;;30.77;23.53;;;;;;;;;;2065529;28;20201;-56
2022/03/23 00:09:21;;;;;;;31.63;23.80;;;;;;;;;;2058714;28;20186;-53
2022/03/23 00:10:22;;;;;;;39.23;23.80;;;;;;;;;;2061454;28;20261;-55
2022/03/23 00:11:24;;;;;;;30.17;21.17;;;;;;;;;;2065000;28;20201;-55
2022/03/23 00:12:24;;;;;;;31.93;22.20;;;;;;;;;;2070045;28;20177;-55
2022/03/23 00:13:25;;;;;;;30.77;22.00;;;;;;;;;;2066608;28;20178;-50
2022/03/23 00:14:25;;;;;;;31.47;23.80;;;;;;;;;;2064675;28;20705;-54
2022/03/23 00:15:27;;;;;;;33.37;22.53;;;;;;;;;;2064414;28;20193;-58
2022/03/23 00:16:27;;;;;;;28.80;22.07;;;;;;;;;;2064164;28;20189;-52
2022/03/23 00:17:28;;;;;;;31.33;21.77;;;;;;;;;;2056627;28;20607;-52
2022/03/23 00:18:28;;;;;;;32.23;23.13;;;;;;;;;;2053889;28;20186;-56
2022/03/23 00:19:28;;;;;;;33.23;23.47;;;;;;;;;;2050376;28;20233;-54
2022/03/23 00:20:28;;;;;;;33.00;23.27;;;;;;;;;;2062745;28;20575;-54
2022/03/23 00:21:29;;;;;;;33.43;22.67;;;;;;;;;;2064337;28;20173;-52
2022/03/23 00:22:29;;;;;;;30.40;22.67;;;;;;;;;;2070579;28;20184;-53
2022/03/23 00:23:30;;;;;;;32.97;22.47;;;;;;;;;;2065426;28;20524;-52
2022/03/23 00:24:31;;;;;;;36.33;24.10;;;;;;;;;;2064571;28;20200;-55
2022/03/23 00:25:31;;;;;;;29.70;22.07;;;;;;;;;;2064729;28;20585;-54
2022/03/23 00:26:32;;;;;;;30.87;23.33;;;;;;;;;;2064797;28;20181;-54
2022/03/23 00:27:32;;;;;;;33.47;22.70;;;;;;;;;;2064425;28;20181;-55
2022/03/23 00:28:32;;;;;;;31.07;23.93;;;;;;;;;;2057542;28;20173;-52
2022/03/23 00:29:34;;;;;;;34.93;23.93;;;;;;;;;;2056397;28;20204;-55
2022/03/23 00:30:37;;;;;;;31.67;22.57;;;;;;;;;;2071060;28;20676;-52
2022/03/23 00:31:38;;;;;;;31.03;21.90;;;;;;;;;;2064958;28;20371;-56
2022/03/23 00:32:38;;;;;;;31.13;22.60;;;;;;;;;;2059109;28;20192;-54
2022/03/23 00:33:38;;;;;;;37.00;23.60;;;;;;;;;;2048336;29;20190;-53
2022/03/23 00:34:39;;;;;;;32.03;23.77;;;;;;;;;;2062091;28;20170;-52
2022/03/23 00:35:39;;;;;;;31.03;23.27;;;;;;;;;;2053196;28;20172;-54
2022/03/23 00:36:40;;;;;;;31.67;22.60;;;;;;;;;;2057555;28;20658;-54
2022/03/23 00:37:43;;;;;;;29.03;22.33;;;;;;;;;;2065227;28;20608;-56
2022/03/23 00:38:43;;;;;;;30.73;24.33;;;;;;;;;;2062500;28;20741;-55
2022/03/23 00:39:46;;;;;;;33.53;23.20;;;;;;;;;;2056737;28;20173;-52
2022/03/23 00:40:47;;;;;;;33.90;23.73;;;;;;;;;;2063794;28;20689;-53
2022/03/23 00:41:50;;;;;;;36.23;24.23;;;;;;;;;;2065975;28;20614;-55
2022/03/23 00:42:50;;;;;;;33.43;23.73;;;;;;;;;;2054828;28;20186;-52
2022/03/23 00:43:51;;;;;;;32.47;23.13;;;;;;;;;;2058371;28;20580;-54
2022/03/23 00:44:54;;;;;;;30.47;22.50;;;;;;;;;;2071757;28;20173;-53
2022/03/23 00:45:57;;;;;;;31.93;22.63;;;;;;;;;;2058873;28;20642;-52
2022/03/23 00:46:59;;;;;;;31.93;24.07;;;;;;;;;;2062281;28;20695;-52
2022/03/23 00:47:59;;;;;;;32.17;23.57;;;;;;;;;;2066425;28;20170;-50
2022/03/23 00:49:00;;;;;;;34.53;24.23;;;;;;;;;;2057313;28;20806;-52
2022/03/23 00:50:01;;;;;;;31.30;22.87;;;;;;;;;;2059428;28;20266;-52
2022/03/23 00:51:01;;;;;;;28.73;23.17;;;;;;;;;;2070374;28;20182;-52
2022/03/23 00:52:05;;;;;;;34.50;23.93;;;;;;;;;;2059440;28;20631;-52
2022/03/23 00:53:06;;;;;;;31.53;23.37;;;;;;;;;;2062278;28;20174;-51
2022/03/23 00:54:06;;;;;;;32.37;23.23;;;;;;;;;;2066147;28;20184;-52
2022/03/23 00:55:09;;;;;;;29.20;22.17;;;;;;;;;;2066547;28;20170;-53
2022/03/23 00:56:09;;;;;;;33.17;22.97;;;;;;;;;;2058486;28;20189;-52
2022/03/23 00:57:10;;;;;;;30.47;23.43;;;;;;;;;;2053105;28;20167;-54
2022/03/23 00:58:10;;;;;;;31.20;22.17;;;;;;;;;;2052679;28;20226;-56
2022/03/23 00:59:10;;;;;;;32.00;24.40;;;;;;;;;;2060925;28;20214;-54
2022/03/23 01:00:12;;;;;;;29.03;22.90;;;;;;;;;;2060972;28;20648;-55
2022/03/23 01:01:13;;;;;;;29.83;23.30;;;;;;;;;;2060026;28;20195;-54
2022/03/23 01:02:14;;;;;;;29.17;23.37;;;;;;;;;;2067168;28;20191;-52
2022/03/23 01:03:14;;;;;;;33.10;23.90;;;;;;;;;;2065905;28;20754;-51
2022/03/23 01:04:15;;;;;;;33.40;23.70;;;;;;;;;;2069595;28;20196;-53
2022/03/23 01:05:16;;;;;;;32.43;24.83;;;;;;;;;;2066199;28;20189;-53
2022/03/23 01:06:16;;;;;;;33.50;22.77;;;;;;;;;;2061917;28;20633;-55
2022/03/23 01:07:16;;;;;;;30.80;24.07;;;;;;;;;;2062309;28;20181;-52
2022/03/23 01:08:17;;;;;;;33.53;25.37;;;;;;;;;;2053450;28;20668;-53
2022/03/23 01:09:22;;;;;;;36.43;27.23;;;;;;;;;;2055168;28;20272;-56
2022/03/23 01:10:24;;;;;;;35.67;26.40;;;;;;;;;;2070258;28;20177;-52
2022/03/23 01:11:24;;;;;;;37.87;29.20;;;;;;;;;;2067368;28;20242;-53
2022/03/23 01:12:26;;;;;;;33.27;25.93;;;;;;;;;;2070742;28;20175;-52
2022/03/23 01:13:26;;;;;;;39.33;28.37;;;;;;;;;;2065095;28;20173;-51
2022/03/23 01:14:26;;;;;;;38.63;27.13;;;;;;;;;;2064816;28;20188;-53
2022/03/23 01:15:27;;;;;;;36.53;27.77;;;;;;;;;;2060012;28;20175;-52
2022/03/23 01:16:28;;;;;;;35.80;27.63;;;;;;;;;;2054867;28;20179;-56
2022/03/23 01:17:28;;;;;;;38.13;27.00;;;;;;;;;;2058753;28;20281;-53
2022/03/23 01:18:28;;;;;;;34.13;26.30;;;;;;;;;;2066301;28;20170;-53
2022/03/23 01:19:29;;;;;;;41.87;28.93;;;;;;;;;;2066800;28;20209;-52
2022/03/23 01:20:30;;;;;;;39.57;28.30;;;;;;;;;;2065295;28;20253;-54
2022/03/23 01:21:30;;;;;;;39.20;29.53;;;;;;;;;;2051014;28;20203;-52
2022/03/23 01:22:31;;;;;;;36.90;27.77;;;;;;;;;;2054459;28;20252;-56
2022/03/23 01:23:31;;;;;;;44.43;30.30;;;;;;;;;;2043328;28;20644;-52
2022/03/23 01:24:31;;;;;;;37.90;28.67;;;;;;;;;;2053990;28;20202;-52
2022/03/23 01:25:33;;;;;;;43.23;30.67;;;;;;;;;;2057364;28;20665;-52
2022/03/23 01:26:33;;;;;;;41.30;29.03;;;;;;;;;;2063209;28;20289;-54
2022/03/23 01:27:35;;;;;;;42.33;30.43;;;;;;;;;;2057487;28;20271;-54
2022/03/23 01:28:36;;;;;;;36.70;28.77;;;;;;;;;;2064596;28;20224;-57
2022/03/23 01:29:36;;;;;;;36.27;27.47;;;;;;;;;;2065950;28;20169;-52
2022/03/23 01:30:37;;;;;;;39.13;29.53;;;;;;;;;;2065425;28;20184;-54
2022/03/23 01:31:37;;;;;;;41.03;29.97;;;;;;;;;;2057665;28;20668;-56
2022/03/23 01:32:38;;;;;;;37.70;30.00;;;;;;;;;;2062544;28;20174;-52
2022/03/23 01:33:38;;;;;;;43.37;28.73;;;;;;;;;;2057192;28;20182;-52
2022/03/23 01:34:39;;;;;;;40.93;30.33;;;;;;;;;;2060333;28;20170;-53
2022/03/23 01:35:39;;;;;;;42.90;30.00;;;;;;;;;;2049598;28;20636;-53
2022/03/23 01:36:39;;;;;;;41.93;29.97;;;;;;;;;;2050779;28;20166;-53
2022/03/23 01:37:40;;;;;;;42.33;30.63;;;;;;;;;;2057449;28;20189;-54
2022/03/23 01:38:41;;;;;;;37.93;28.10;;;;;;;;;;2063879;28;20264;-51
2022/03/23 01:39:41;;;;;;;37.23;27.87;;;;;;;;;;2052735;28;20274;-54
2022/03/23 01:40:43;;;;;;;37.40;27.23;;;;;;;;;;2057480;28;20170;-55
2022/03/23 01:41:44;;;;;;;36.17;28.37;;;;;;;;;;2063752;28;20173;-53
2022/03/23 01:42:45;;;;;;;38.60;28.07;;;;;;;;;;2064692;28;20571;-51
2022/03/23 01:43:45;;;;;;;39.67;28.27;;;;;;;;;;2070755;28;20169;-55
2022/03/23 01:44:46;;;;;;;37.40;28.37;;;;;;;;;;2063023;28;20225;-54
2022/03/23 01:45:46;;;;;;;38.77;30.80;;;;;;;;;;2057119;28;20266;-56
2022/03/23 01:47:00;;;;;;;42.50;30.70;;;;;;;;;;2066058;28;20658;-56
2022/03/23 01:48:00;;;;;;;40.93;28.20;;;;;;;;;;2058540;28;20185;-56
2022/03/23 01:49:01;;;;;;;38.87;27.57;;;;;;;;;;2052386;28;20281;-54
2022/03/23 01:50:04;;;;;;;37.67;30.27;;;;;;;;;;2064512;28;20606;-54
2022/03/23 01:51:06;;;;;;;40.37;31.07;;;;;;;;;;2056763;28;20662;-50
2022/03/23 01:52:08;;;;;;;44.00;29.13;;;;;;;;;;2050209;28;20214;-58
2022/03/23 01:53:08;;;;;;;37.83;29.13;;;;;;;;;;2062266;28;20190;-54
2022/03/23 01:54:08;;;;;;;38.70;29.00;;;;;;;;;;2070696;28;20197;-56
2022/03/23 01:55:10;;;;;;;42.13;29.00;;;;;;;;;;2066180;28;20162;-56
2022/03/23 01:56:11;;;;;;;39.60;30.10;;;;;;;;;;2067310;28;20180;-55
2022/03/23 01:57:15;;;;;;;36.33;28.97;;;;;;;;;;2070228;28;20174;-56
2022/03/23 01:58:17;;;;;;;37.87;26.97;;;;;;;;;;2070776;28;20166;-56
2022/03/23 01:59:18;;;;;;;35.03;28.20;;;;;;;;;;2062359;28;20198;-56
2022/03/23 02:00:19;;;;;;;37.23;29.27;;;;;;;;;;2069468;28;20176;-53
2022/03/23 02:01:22;;;;;;;37.37;28.63;;;;;;;;;;2061894;28;20170;-55
2022/03/23 02:02:22;;;;;;;38.10;29.60;;;;;;;;;;2061726;28;20178;-58
2022/03/23 02:03:31;;;;;;;37.30;29.03;;;;;;;;;;2059198;28;20174;-56
2022/03/23 02:04:31;;;;;;;38.90;29.40;;;;;;;;;;2050071;28;20183;-52
2022/03/23 02:05:31;;;;;;;37.30;26.70;;;;;;;;;;2058134;28;20178;-51
2022/03/23 02:06:32;;;;;;;36.40;27.53;;;;;;;;;;2065535;28;20181;-56
2022/03/23 02:07:33;;;;;;;33.83;27.30;;;;;;;;;;2067570;28;20173;-55
2022/03/23 02:08:34;;;;;;;36.07;27.73;;;;;;;;;;2074064;28;20177;-54
2022/03/23 02:09:34;;;;;;;34.83;25.80;;;;;;;;;;2060086;28;20201;-55
2022/03/23 02:10:40;;;;;;;35.07;27.00;;;;;;;;;;2067003;28;20180;-52
2022/03/23 02:11:46;;;;;;;34.03;25.57;;;;;;;;;;2066068;28;20239;-53
2022/03/23 02:12:47;;;;;;;39.17;26.83;;;;;;;;;;2066210;28;20178;-55
2022/03/23 02:13:48;;;;;;;33.83;26.63;;;;;;;;;;2074640;28;20202;-51
2022/03/23 02:14:48;;;;;;;32.87;25.90;;;;;;;;;;2065893;28;20236;-54
2022/03/23 02:15:49;;;;;;;36.30;27.47;;;;;;;;;;2058182;28;20190;-53
2022/03/23 02:16:51;;;;;;;36.33;26.43;;;;;;;;;;2059849;28;20325;-55
2022/03/23 02:17:53;;;;;;;40.37;26.30;;;;;;;;;;2050288;28;20183;-52
2022/03/23 02:18:54;;;;;;;34.83;25.23;;;;;;;;;;2054783;28;20197;-53
2022/03/23 02:19:55;;;;;;;34.43;25.90;;;;;;;;;;2056967;28;20179;-54
2022/03/23 02:20:55;;;;;;;32.87;25.97;;;;;;;;;;2062456;28;20643;-54
2022/03/23 02:21:56;;;;;;;32.47;26.13;;;;;;;;;;2061454;28;20174;-54
2022/03/23 02:23:00;;;;;;;33.53;26.90;;;;;;;;;;2065053;28;20259;-56
2022/03/23 02:24:02;;;;;;;35.07;25.23;;;;;;;;;;2069653;28;20570;-51
2022/03/23 02:25:04;;;;;;;41.93;27.67;;;;;;;;;;2071881;28;20180;-50
2022/03/23 02:26:04;;;;;;;33.67;25.70;;;;;;;;;;2066751;28;20201;-55
2022/03/23 02:27:05;;;;;;;34.27;25.17;;;;;;;;;;2066081;28;20666;-53
2022/03/23 02:28:05;;;;;;;34.80;26.20;;;;;;;;;;2061524;28;20175;-58
2022/03/23 02:29:06;;;;;;;33.10;25.53;;;;;;;;;;2060208;28;20223;-54
2022/03/23 02:30:09;;;;;;;36.07;26.57;;;;;;;;;;2070641;28;20567;-54
2022/03/23 02:31:10;;;;;;;34.43;26.03;;;;;;;;;;2069560;28;20209;-53
2022/03/23 02:32:10;;;;;;;33.40;25.20;;;;;;;;;;2071437;28;20208;-53
2022/03/23 02:33:10;;;;;;;31.63;24.63;;;;;;;;;;2069130;28;20178;-56
2022/03/23 02:34:10;;;;;;;33.13;24.37;;;;;;;;;;2065927;28;20181;-55
2022/03/23 02:35:11;;;;;;;41.00;25.60;;;;;;;;;;2065795;28;20170;-54
2022/03/23 02:36:11;;;;;;;29.27;24.20;;;;;;;;;;2066833;28;20265;-54
2022/03/23 02:37:12;;;;;;;35.20;25.60;;;;;;;;;;2056593;28;20237;-53
2022/03/23 02:38:12;;;;;;;35.87;25.47;;;;;;;;;;2058420;28;20199;-55
2022/03/23 02:39:13;;;;;;;32.37;24.93;;;;;;;;;;2065084;28;20698;-51
2022/03/23 02:40:13;;;;;;;39.33;25.27;;;;;;;;;;2065841;28;20243;-52
2022/03/23 02:41:13;;;;;;;37.43;26.97;;;;;;;;;;2052203;28;20270;-54
2022/03/23 02:42:14;;;;;;;34.90;25.63;;;;;;;;;;2056011;28;20174;-51
2022/03/23 02:43:14;;;;;;;33.27;25.70;;;;;;;;;;2065631;28;20236;-55
2022/03/23 02:44:16;;;;;;;36.87;25.27;;;;;;;;;;2068815;28;20193;-53
2022/03/23 02:45:18;;;;;;;33.03;25.97;;;;;;;;;;2071669;28;20173;-56
2022/03/23 02:46:19;;;;;;;34.53;23.73;;;;;;;;;;2068690;28;20265;-56
2022/03/23 02:47:20;;;;;;;33.60;25.20;;;;;;;;;;2063521;28;20221;-58
2022/03/23 02:48:20;;;;;;;34.20;25.47;;;;;;;;;;2070545;28;20177;-55
2022/03/23 02:49:20;;;;;;;38.37;24.53;;;;;;;;;;2062227;28;20190;-55
2022/03/23 02:50:21;;;;;;;35.20;24.60;;;;;;;;;;2058997;28;20186;-54
2022/03/23 02:51:21;;;;;;;32.60;25.53;;;;;;;;;;2062605;28;20592;-58
2022/03/23 02:52:21;;;;;;;36.13;25.63;;;;;;;;;;2077824;28;20204;-54
2022/03/23 03:02:00;;;;;;;34.30;22.83;;;;;;;;;;2064268;28;20221;-56
2022/03/23 03:03:00;;;;;;;35.00;22.37;;;;;;;;;;2069156;28;20192;-59
2022/03/23 03:04:00;;;;;;;29.87;22.03;;;;;;;;;;2070718;28;20263;-55
2022/03/23 03:05:01;;;;;;;31.30;22.13;;;;;;;;;;2058330;28;20217;-57
2022/03/23 03:06:02;;;;;;;32.10;23.80;;;;;;;;;;2053311;29;20171;-56
2022/03/23 03:07:03;;;;;;;33.53;23.07;;;;;;;;;;2065301;28;20190;-55
2022/03/23 03:09:22;;;;;;;33.20;22.83;;;;;;;;;;2070055;28;20268;-55
2022/03/23 03:10:24;;;;;;;36.73;24.17;;;;;;;;;;2070298;28;20177;-55
2022/03/23 03:11:25;;;;;;;32.23;24.27;;;;;;;;;;2069749;28;20629;-55
2022/03/23 03:12:26;;;;;;;32.40;23.80;;;;;;;;;;2070601;28;20265;-55
2022/03/23 03:13:28;;;;;;;34.83;24.47;;;;;;;;;;2070746;28;20180;-56
2022/03/23 03:14:29;;;;;;;33.53;23.93;;;;;;;;;;2069387;28;20185;-58
2022/03/23 03:15:30;;;;;;;36.40;25.47;;;;;;;;;;2067746;28;20176;-57
2022/03/23 03:16:30;;;;;;;32.33;24.90;;;;;;;;;;2068384;28;20209;-56
2022/03/23 03:17:30;;;;;;;30.70;22.80;;;;;;;;;;2070517;28;20186;-56
2022/03/23 03:18:34;;;;;;;34.33;24.63;;;;;;;;;;2070088;28;20189;-55
2022/03/23 03:19:35;;;;;;;35.57;24.60;;;;;;;;;;2070814;28;20174;-55
2022/03/23 03:20:35;;;;;;;31.97;24.10;;;;;;;;;;2078954;28;20177;-58
2022/03/23 03:21:35;;;;;;;32.40;23.50;;;;;;;;;;2070370;28;20587;-57
2022/03/23 03:22:38;;;;;;;32.10;24.87;;;;;;;;;;2070329;28;20178;-56
2022/03/23 03:23:41;;;;;;;33.23;23.43;;;;;;;;;;2070196;28;20173;-57
2022/03/23 03:24:41;;;;;;;38.20;25.07;;;;;;;;;;2069270;28;20626;-53
2022/03/23 03:25:42;;;;;;;36.23;25.63;;;;;;;;;;2070745;28;20194;-55
2022/03/23 03:26:42;;;;;;;33.97;24.83;;;;;;;;;;2068352;28;20219;-58
2022/03/23 03:27:43;;;;;;;34.33;25.07;;;;;;;;;;2070856;28;20169;-57
2022/03/23 03:28:43;;;;;;;34.47;24.27;;;;;;;;;;2069450;28;20224;-56
2022/03/23 03:29:44;;;;;;;31.53;24.43;;;;;;;;;;2069632;28;20174;-54
2022/03/23 03:30:44;;;;;;;32.90;24.00;;;;;;;;;;2069368;28;20627;-56
2022/03/23 03:31:44;;;;;;;33.30;24.43;;;;;;;;;;2068644;28;20178;-54
2022/03/23 03:32:45;;;;;;;34.63;25.53;;;;;;;;;;2067875;28;20204;-55
2022/03/23 03:33:45;;;;;;;31.77;24.70;;;;;;;;;;2068864;28;20434;-55
2022/03/23 03:34:45;;;;;;;33.97;24.27;;;;;;;;;;2067569;28;20208;-53
2022/03/23 03:35:46;;;;;;;38.33;24.60;;;;;;;;;;2067470;28;20542;-53
2022/03/23 03:36:46;;;;;;;32.07;23.27;;;;;;;;;;2065825;28;20611;-55
2022/03/23 03:37:46;;;;;;;31.43;23.87;;;;;;;;;;2065789;28;20300;-55
2022/03/23 03:38:47;;;;;;;36.83;24.60;;;;;;;;;;2065504;28;20196;-54
2022/03/23 03:39:47;;;;;;;32.87;24.57;;;;;;;;;;2066093;28;20322;-55
2022/03/23 03:40:48;;;;;;;34.37;24.57;;;;;;;;;;2065358;28;20212;-53
2022/03/23 03:41:48;;;;;;;33.23;24.57;;;;;;;;;;2066380;28;20177;-55
2022/03/23 03:42:48;;;;;;;31.73;24.80;;;;;;;;;;2065624;28;20175;-53
2022/03/23 03:43:49;;;;;;;34.47;24.63;;;;;;;;;;2066111;28;20220;-55
2022/03/23 03:44:50;;;;;;;32.47;24.23;;;;;;;;;;2064840;28;20170;-53
2022/03/23 03:45:51;;;;;;;35.33;24.40;;;;;;;;;;2065211;28;20609;-53
2022/03/23 03:46:51;;;;;;;30.50;25.10;;;;;;;;;;2065272;28;20174;-54
2022/03/23 03:47:52;;;;;;;38.17;27.20;;;;;;;;;;2064807;28;20173;-52
2022/03/23 03:48:52;;;;;;;36.97;26.63;;;;;;;;;;2065365;28;20344;-51
2022/03/23 03:49:52;;;;;;;31.27;24.87;;;;;;;;;;2066864;28;20230;-52
2022/03/23 03:50:52;;;;;;;32.33;24.13;;;;;;;;;;2065154;28;20561;-53
2022/03/23 03:51:53;;;;;;;32.67;24.13;;;;;;;;;;2065154;28;20217;-52
2022/03/23 03:52:53;;;;;;;30.73;22.57;;;;;;;;;;2065608;28;20205;-55
2022/03/23 03:53:53;;;;;;;34.77;23.67;;;;;;;;;;2064767;28;20178;-58
2022/03/23 03:54:53;;;;;;;33.93;23.97;;;;;;;;;;2065567;28;20166;-54
2022/03/23 03:55:54;;;;;;;35.93;24.73;;;;;;;;;;2055831;28;20174;-54
2022/03/23 03:56:54;;;;;;;32.10;24.57;;;;;;;;;;2051434;28;20208;-52
2022/03/23 03:57:55;;;;;;;36.67;24.77;;;;;;;;;;2065238;28;20188;-51
2022/03/23 03:58:55;;;;;;;34.53;24.07;;;;;;;;;;2065175;28;20372;-51
2022/03/23 03:59:55;;;;;;;42.37;26.80;;;;;;;;;;2065176;28;20173;-56
2022/03/23 04:00:55;;;;;;;37.77;25.27;;;;;;;;;;2066161;28;20251;-56
2022/03/23 04:01:56;;;;;;;36.77;24.57;;;;;;;;;;2064859;28;20185;-53
2022/03/23 04:02:56;;;;;;;33.63;23.73;;;;;;;;;;2065223;28;20173;-54
2022/03/23 04:03:57;;;;;;;32.97;24.10;;;;;;;;;;2066511;28;20208;-52
2022/03/23 04:04:57;;;;;;;31.40;23.73;;;;;;;;;;2065646;28;20793;-53
2022/03/23 04:05:57;;;;;;;32.33;24.23;;;;;;;;;;2065436;28;20193;-53
2022/03/23 04:06:57;;;;;;;34.00;23.87;;;;;;;;;;2056847;28;20225;-53
2022/03/23 04:07:58;;;;;;;31.73;24.03;;;;;;;;;;2061239;28;20217;-55
2022/03/23 04:08:58;;;;;;;35.13;24.47;;;;;;;;;;2072962;28;20205;-56
2022/03/23 04:09:59;;;;;;;35.13;23.93;;;;;;;;;;2070636;28;20189;-56
2022/03/23 04:11:00;;;;;;;34.60;25.73;;;;;;;;;;2069443;28;20169;-57
2022/03/23 04:12:00;;;;;;;32.70;23.13;;;;;;;;;;2068770;28;20371;-56
2022/03/23 04:13:01;;;;;;;33.43;24.20;;;;;;;;;;2069711;28;20178;-57
2022/03/23 04:14:01;;;;;;;38.20;25.20;;;;;;;;;;2069766;28;20165;-53
2022/03/23 04:15:02;;;;;;;37.63;25.07;;;;;;;;;;2065814;28;20165;-58
2022/03/23 04:16:03;;;;;;;35.13;25.57;;;;;;;;;;2067662;28;20205;-58
2022/03/23 04:17:03;;;;;;;38.60;24.43;;;;;;;;;;2067106;28;20173;-55
2022/03/23 04:18:04;;;;;;;35.70;25.43;;;;;;;;;;2069057;28;20208;-56
2022/03/23 04:19:05;;;;;;;36.40;25.80;;;;;;;;;;2068318;28;20733;-55
2022/03/23 04:20:06;;;;;;;37.07;26.77;;;;;;;;;;2068578;28;20650;-56
2022/03/23 04:21:07;;;;;;;38.37;26.00;;;;;;;;;;2068151;28;20182;-56
2022/03/23 04:22:08;;;;;;;38.43;25.67;;;;;;;;;;2068550;28;20177;-55
2022/03/23 04:23:08;;;;;;;38.87;25.53;;;;;;;;;;2068441;28;20190;-54
2022/03/23 04:24:08;;;;;;;37.47;24.30;;;;;;;;;;2069320;28;20208;-55
2022/03/23 04:25:09;;;;;;;34.67;25.03;;;;;;;;;;2059645;28;20197;-56
2022/03/23 04:26:10;;;;;;;34.07;24.63;;;;;;;;;;2061760;28;20813;-56
2022/03/23 04:27:10;;;;;;;39.03;25.80;;;;;;;;;;2069983;28;20248;-55
2022/03/23 04:28:11;;;;;;;37.33;25.60;;;;;;;;;;2076646;28;20196;-53
2022/03/23 04:29:11;;;;;;;33.60;25.07;;;;;;;;;;2073278;28;20217;-51
2022/03/23 04:30:12;;;;;;;36.27;25.17;;;;;;;;;;2071958;28;20264;-53
2022/03/23 04:31:12;;;;;;;36.87;24.57;;;;;;;;;;2070195;28;20177;-51
2022/03/23 04:32:13;;;;;;;37.90;24.73;;;;;;;;;;2071315;28;20455;-54
2022/03/23 04:33:13;;;;;;;33.07;24.40;;;;;;;;;;2064639;28;20264;-52
2022/03/23 04:34:14;;;;;;;36.00;25.10;;;;;;;;;;2062196;28;20174;-57
2022/03/23 04:35:14;;;;;;;35.27;25.80;;;;;;;;;;2070870;28;20198;-55
2022/03/23 04:36:14;;;;;;;29.70;23.83;;;;;;;;;;2069903;28;20174;-52
2022/03/23 04:37:15;;;;;;;33.80;25.50;;;;;;;;;;2069906;28;20197;-53
2022/03/23 04:38:15;;;;;;;38.97;26.03;;;;;;;;;;2061842;28;20265;-52
2022/03/23 04:39:15;;;;;;;35.40;24.47;;;;;;;;;;2062061;28;20194;-51
2022/03/23 04:40:16;;;;;;;36.00;25.53;;;;;;;;;;2072597;28;20182;-54
2022/03/23 04:41:16;;;;;;;34.23;26.00;;;;;;;;;;2069664;28;20186;-55
2022/03/23 04:42:16;;;;;;;35.07;24.77;;;;;;;;;;2070589;28;20257;-53
2022/03/23 04:43:17;;;;;;;34.73;24.77;;;;;;;;;;2070959;28;20174;-54
2022/03/23 04:44:17;;;;;;;37.23;25.20;;;;;;;;;;2071336;28;20648;-52
2022/03/23 04:45:17;;;;;;;32.17;24.47;;;;;;;;;;2071987;28;20265;-55
2022/03/23 04:46:18;;;;;;;37.30;25.40;;;;;;;;;;2079467;28;20195;-52
2022/03/23 04:47:18;;;;;;;36.47;26.03;;;;;;;;;;2066909;28;20214;-54
2022/03/23 04:48:18;;;;;;;33.77;25.07;;;;;;;;;;2065034;28;20175;-53
2022/03/23 04:49:19;;;;;;;33.13;25.10;;;;;;;;;;2073927;28;20195;-52
2022/03/23 04:50:19;;;;;;;34.50;24.50;;;;;;;;;;2072581;28;20202;-54
2022/03/23 04:51:19;;;;;;;34.33;25.27;;;;;;;;;;2072489;28;20171;-51
2022/03/23 04:52:20;;;;;;;35.20;25.80;;;;;;;;;;2071399;28;20209;-53
2022/03/23 04:53:21;;;;;;;35.13;24.73;;;;;;;;;;2071884;28;20228;-52
2022/03/23 04:54:21;;;;;;;33.47;24.17;;;;;;;;;;2070843;28;20431;-52
2022/03/23 04:55:22;;;;;;;33.37;24.93;;;;;;;;;;2071230;28;20161;-51
2022/03/23 04:56:22;;;;;;;32.63;23.77;;;;;;;;;;2073122;28;20201;-54
2022/03/23 04:57:26;;;;;;;36.87;25.60;;;;;;;;;;2071882;28;20194;-55
2022/03/23 04:58:29;;;;;;;36.47;24.80;;;;;;;;;;2071578;28;20173;-54
2022/03/23 04:59:30;;;;;;;35.73;26.27;;;;;;;;;;2081734;22;20548;-58
2022/03/23 05:00:30;;;;;;;36.37;25.53;;;;;;;;;;2072816;28;20268;-64
2022/03/23 05:01:30;;;;;;;38.50;25.40;;;;;;;;;;2064904;28;20203;-58
2022/03/23 05:02:31;;;;;;;33.00;23.93;;;;;;;;;;2061358;28;20166;-62
2022/03/23 05:03:31;;;;;;;32.73;24.53;;;;;;;;;;2073711;28;20347;-63
2022/03/23 05:04:31;;;;;;;36.67;26.37;;;;;;;;;;2052504;28;20630;-63
2022/03/23 05:05:31;;;;;;;38.93;25.73;;;;;;;;;;2057383;28;20178;-60
2022/03/23 05:06:32;;;;;;;35.63;26.67;;;;;;;;;;2073865;28;20658;-64
2022/03/23 05:07:32;;;;;;;36.40;26.63;;;;;;;;;;2074017;28;20275;-60
2022/03/23 05:08:32;;;;;;;36.93;26.83;;;;;;;;;;2073751;28;20173;-61
2022/03/23 05:09:33;;;;;;;35.57;27.30;;;;;;;;;;2073962;28;20191;-63
2022/03/23 05:10:33;;;;;;;38.53;26.73;;;;;;;;;;2074428;28;20180;-65
2022/03/23 05:11:33;;;;;;;36.77;26.87;;;;;;;;;;2074617;28;20692;-64
2022/03/23 05:12:35;;;;;;;36.07;26.63;;;;;;;;;;2067178;28;20626;-62
2022/03/23 05:13:35;;;;;;;36.63;24.67;;;;;;;;;;2068638;28;20182;-62
2022/03/23 05:14:36;;;;;;;37.10;26.37;;;;;;;;;;2073621;28;20227;-63
2022/03/23 05:15:36;;;;;;;37.00;26.33;;;;;;;;;;2074674;28;20181;-60
2022/03/23 05:16:37;;;;;;;35.20;26.70;;;;;;;;;;2070939;28;20260;-66
2022/03/23 05:17:38;;;;;;;39.27;26.93;;;;;;;;;;2074132;28;20157;-64
2022/03/23 05:18:40;;;;;;;37.17;26.40;;;;;;;;;;2074563;28;20181;-62
2022/03/23 05:19:40;;;;;;;39.37;25.90;;;;;;;;;;2074371;28;20216;-63
2022/03/23 05:20:40;;;;;;;37.67;26.30;;;;;;;;;;2074874;28;20168;-65
2022/03/23 05:21:41;;;;;;;35.97;24.80;;;;;;;;;;2074268;28;20187;-63
2022/03/23 05:22:41;;;;;;;35.93;24.73;;;;;;;;;;2074731;28;20196;-64
2022/03/23 05:23:41;;;;;;;34.33;25.57;;;;;;;;;;2074136;28;20181;-64
2022/03/23 05:24:42;;;;;;;35.87;24.53;;;;;;;;;;2065662;28;20170;-63
2022/03/23 05:25:42;;;;;;;31.67;24.93;;;;;;;;;;2056994;28;20182;-62
2022/03/23 05:26:42;;;;;;;35.87;24.37;;;;;;;;;;2065691;28;20260;-64
2022/03/23 05:27:43;;;;;;;35.70;24.77;;;;;;;;;;2074044;28;20180;-64
2022/03/23 05:28:43;;;;;;;35.53;25.83;;;;;;;;;;2073045;28;20177;-62
2022/03/23 05:29:43;;;;;;;35.30;25.87;;;;;;;;;;2066533;28;20285;-64
2022/03/23 05:30:43;;;;;;;36.33;25.90;;;;;;;;;;2068395;28;20225;-66
2022/03/23 05:31:44;;;;;;;36.20;24.83;;;;;;;;;;2065511;28;20265;-63
2022/03/23 05:32:44;;;;;;;38.90;25.87;;;;;;;;;;2065779;28;20220;-65
2022/03/23 05:33:45;;;;;;;34.43;26.23;;;;;;;;;;2073610;28;20411;-65
2022/03/23 05:34:46;;;;;;;37.47;26.13;;;;;;;;;;2073688;28;20173;-65
2022/03/23 05:35:46;;;;;;;37.23;26.30;;;;;;;;;;2073734;28;20176;-65
2022/03/23 05:36:46;;;;;;;36.23;24.83;;;;;;;;;;2072995;28;20173;-65
2022/03/23 05:37:47;;;;;;;35.23;25.17;;;;;;;;;;2073231;28;20169;-62
2022/03/23 05:38:47;;;;;;;32.93;25.30;;;;;;;;;;2074412;28;20212;-65
2022/03/23 05:39:48;;;;;;;33.50;26.57;;;;;;;;;;2072729;28;20200;-65
2022/03/23 05:40:48;;;;;;;38.90;26.63;;;;;;;;;;2075031;28;20175;-63
2022/03/23 05:41:48;;;;;;;36.53;26.03;;;;;;;;;;2069565;28;20627;-62
2022/03/23 05:42:49;;;;;;;34.60;23.73;;;;;;;;;;2074217;28;20264;-63
2022/03/23 05:43:49;;;;;;;36.17;25.90;;;;;;;;;;2068690;28;20244;-66
2022/03/23 05:44:49;;;;;;;32.50;24.13;;;;;;;;;;2073654;28;20235;-62
2022/03/23 05:45:50;;;;;;;35.80;26.57;;;;;;;;;;2064793;28;20212;-60
2022/03/23 05:46:50;;;;;;;36.20;25.10;;;;;;;;;;2064848;28;20298;-61
2022/03/23 05:47:53;;;;;;;36.93;26.40;;;;;;;;;;2068154;28;20209;-63
2022/03/23 05:48:54;;;;;;;37.87;26.07;;;;;;;;;;2067035;28;20256;-62
2022/03/23 05:49:54;;;;;;;35.30;25.57;;;;;;;;;;2071055;28;20161;-62
2022/03/23 05:50:54;;;;;;;34.03;25.03;;;;;;;;;;2073520;28;20612;-63
2022/03/23 05:51:54;;;;;;;36.03;25.43;;;;;;;;;;2065156;28;20227;-62
2022/03/23 05:52:55;;;;;;;33.27;24.63;;;;;;;;;;2064611;28;20205;-64
2022/03/23 05:53:55;;;;;;;36.27;26.97;;;;;;;;;;2068777;28;20212;-63
2022/03/23 05:54:56;;;;;;;35.23;24.33;;;;;;;;;;2071190;28;20197;-64
2022/03/23 05:55:56;;;;;;;35.67;24.47;;;;;;;;;;2072749;28;20184;-64
2022/03/23 05:56:57;;;;;;;31.30;24.77;;;;;;;;;;2074018;28;20192;-65
2022/03/23 05:57:57;;;;;;;35.30;23.97;;;;;;;;;;2073965;28;20181;-63
2022/03/23 05:58:57;;;;;;;35.30;23.87;;;;;;;;;;2065208;28;20185;-61
2022/03/23 05:59:58;;;;;;;33.53;24.97;;;;;;;;;;2064136;28;20669;-64
2022/03/23 06:00:58;;;;;;;31.73;22.90;;;;;;;;;;2073271;28;20235;-64
2022/03/23 06:01:59;;;;;;;32.57;24.70;;;;;;;;;;2073057;28;20173;-64
2022/03/23 06:02:59;;;;;;;32.77;24.23;;;;;;;;;;2065874;28;20213;-64